Time;durP1;ratioP1;P1;durP2;ratioP2;P2;SDS_P1;SDS_P2;PMS_P1;PMS_P2;Temp;Humidity;BMP_temperature;BMP_pressure;BME280_temperature;BME280_humidity;BME280_pressure;Samples;Min_cycle;Max_cycle;Signal;HPM_P1;HPM_P2
2023/07/28 00:01:00;;;;;;;4.57;2.50;;;16.50;89.70;;;;;;5055780;28;20430;-69
2023/07/28 00:03:32;;;;;;;5.50;3.27;;;16.50;89.40;;;;;;5055738;28;20624;-69
2023/07/28 00:05:59;;;;;;;3.70;2.13;;;16.60;89.40;;;;;;5055108;28;20493;-69
2023/07/28 00:08:32;;;;;;;3.73;2.43;;;16.60;89.60;;;;;;5055512;28;20449;-69
2023/07/28 00:11:11;;;;;;;8.50;2.93;;;16.60;89.60;;;;;;5055650;28;21041;-69
2023/07/28 00:13:38;;;;;;;6.70;3.20;;;16.50;89.70;;;;;;5055636;28;20503;-69
2023/07/28 00:16:06;;;;;;;5.53;2.30;;;16.50;89.80;;;;;;5055161;28;20533;-69
2023/07/28 00:18:37;;;;;;;9.27;2.90;;;16.40;90.00;;;;;;5053804;28;20472;-69
2023/07/28 00:21:06;;;;;;;4.40;2.60;;;16.50;89.80;;;;;;5054313;28;20445;-69
2023/07/28 00:23:33;;;;;;;4.00;2.50;;;16.50;89.40;;;;;;5055353;28;20906;-69
2023/07/28 00:26:06;;;;;;;2.80;1.87;;;16.50;89.20;;;;;;5054533;28;20523;-70
2023/07/28 00:28:39;;;;;;;5.60;2.27;;;16.50;88.40;;;;;;5054986;28;20476;-69
2023/07/28 00:31:08;;;;;;;4.07;2.70;;;16.50;88.40;;;;;;5055213;28;20533;-68
2023/07/28 00:33:38;;;;;;;4.10;2.43;;;16.50;88.40;;;;;;5055095;28;20469;-69
2023/07/28 00:36:20;;;;;;;3.73;2.20;;;16.30;89.00;;;;;;5054440;28;20528;-69
2023/07/28 00:38:56;;;;;;;9.10;2.83;;;16.30;89.50;;;;;;5055036;28;20476;-69
2023/07/28 00:41:30;;;;;;;3.80;2.70;;;16.30;90.20;;;;;;5054690;28;20915;-69
2023/07/28 00:44:01;;;;;;;5.43;3.37;;;16.10;90.30;;;;;;5054681;28;20468;-69
2023/07/28 00:46:31;;;;;;;6.03;3.40;;;16.10;90.20;;;;;;5054079;28;20521;-70
2023/07/28 00:49:04;;;;;;;5.43;4.10;;;16.00;90.30;;;;;;5054450;28;20912;-69
2023/07/28 00:51:38;;;;;;;6.47;4.03;;;15.90;90.50;;;;;;5054862;28;20820;-68
2023/07/28 00:54:11;;;;;;;4.83;2.50;;;15.70;91.10;;;;;;5054417;28;20486;-70
2023/07/28 00:56:40;;;;;;;6.17;3.50;;;15.70;91.00;;;;;;5054401;28;20470;-69
2023/07/28 00:59:09;;;;;;;9.40;3.13;;;15.70;90.90;;;;;;5054393;28;20476;-69
2023/07/28 01:01:40;;;;;;;5.40;2.50;;;15.60;91.00;;;;;;5054600;28;20429;-68
2023/07/28 01:04:08;;;;;;;4.83;2.60;;;15.60;91.10;;;;;;5054539;28;20429;-68
2023/07/28 01:06:53;;;;;;;4.50;2.60;;;15.50;91.30;;;;;;5054141;28;20480;-69
2023/07/28 01:09:25;;;;;;;4.00;2.33;;;15.50;91.40;;;;;;5053625;28;20601;-68
2023/07/28 01:11:57;;;;;;;4.47;3.00;;;15.50;91.60;;;;;;5054096;28;20467;-71
2023/07/28 01:14:27;;;;;;;3.80;2.67;;;15.40;91.60;;;;;;5054339;28;20436;-69
2023/07/28 01:16:54;;;;;;;4.90;2.83;;;15.30;91.80;;;;;;5053647;28;20436;-69
2023/07/28 01:19:30;;;;;;;5.07;2.73;;;15.40;91.80;;;;;;5054159;28;20482;-68
2023/07/28 01:22:26;;;;;;;3.63;2.53;;;15.40;91.60;;;;;;5053679;28;20445;-69
2023/07/28 01:25:07;;;;;;;6.73;2.80;;;15.30;91.70;;;;;;5053777;28;20684;-68
2023/07/28 01:27:42;;;;;;;4.10;2.63;;;15.30;91.80;;;;;;5053825;28;20448;-69
2023/07/28 01:30:14;;;;;;;6.43;2.83;;;15.20;92.00;;;;;;5053812;28;21036;-68
2023/07/28 01:32:44;;;;;;;5.93;3.10;;;15.10;92.20;;;;;;5053700;28;20419;-69
2023/07/28 01:35:11;;;;;;;3.83;2.70;;;15.10;92.20;;;;;;5053672;28;20432;-69
2023/07/28 01:37:52;;;;;;;4.87;3.37;;;15.10;92.20;;;;;;5053320;28;20808;-70
2023/07/28 01:40:24;;;;;;;4.90;3.03;;;15.10;92.50;;;;;;5053608;28;20428;-69
2023/07/28 01:42:54;;;;;;;4.77;2.70;;;15.10;92.20;;;;;;5052981;28;20472;-69
2023/07/28 01:45:26;;;;;;;4.10;2.67;;;15.20;92.10;;;;;;5053434;28;20432;-68
2023/07/28 01:47:57;;;;;;;3.87;2.67;;;15.10;92.10;;;;;;5053729;28;20468;-69
2023/07/28 01:50:26;;;;;;;4.03;2.50;;;15.00;92.10;;;;;;5053506;28;20443;-69
2023/07/28 01:52:58;;;;;;;4.00;2.40;;;15.10;92.20;;;;;;5052955;28;20449;-69
2023/07/28 01:55:29;;;;;;;5.77;3.33;;;15.10;92.10;;;;;;5053471;28;20970;-69
2023/07/28 01:57:59;;;;;;;4.87;3.23;;;15.00;92.10;;;;;;5052056;28;20468;-70
2023/07/28 02:00:27;;;;;;;4.30;2.90;;;15.10;92.10;;;;;;5053616;28;20440;-69
2023/07/28 02:02:57;;;;;;;3.97;2.27;;;15.10;92.00;;;;;;5053573;28;20463;-68
2023/07/28 02:05:29;;;;;;;4.00;2.90;;;15.10;92.00;;;;;;5053597;28;20794;-68
2023/07/28 02:07:57;;;;;;;3.33;2.17;;;15.10;92.00;;;;;;5053237;28;20428;-69
2023/07/28 02:10:27;;;;;;;4.10;2.03;;;15.10;91.90;;;;;;5053253;28;20517;-68
2023/07/28 02:12:55;;;;;;;3.40;2.00;;;15.10;92.10;;;;;;5053467;28;20533;-69
2023/07/28 02:15:26;;;;;;;4.37;2.93;;;15.00;92.20;;;;;;5053186;28;20474;-69
2023/07/28 02:17:53;;;;;;;5.20;2.33;;;15.00;92.30;;;;;;5052679;28;20945;-68
2023/07/28 02:20:33;;;;;;;3.80;2.17;;;15.10;92.30;;;;;;5053564;28;20468;-69
2023/07/28 02:23:00;;;;;;;3.77;2.20;;;15.20;91.90;;;;;;5053517;28;20428;-69
2023/07/28 02:25:28;;;;;;;4.23;2.60;;;15.30;91.90;;;;;;5053548;28;20512;-69
2023/07/28 02:27:55;;;;;;;9.13;2.30;;;15.20;91.90;;;;;;5053023;28;20477;-69
2023/07/28 02:30:24;;;;;;;4.43;2.50;;;15.20;92.10;;;;;;5051809;28;20922;-69
2023/07/28 02:32:56;;;;;;;4.27;2.30;;;15.10;92.10;;;;;;5051614;28;20466;-68
2023/07/28 02:35:28;;;;;;;4.67;2.20;;;15.20;91.90;;;;;;5057475;28;20825;-69
2023/07/28 02:37:55;;;;;;;6.40;2.50;;;15.30;91.50;;;;;;5057621;28;20445;-69
2023/07/28 02:40:27;;;;;;;3.33;2.37;;;15.40;91.50;;;;;;5056670;28;20479;-69
2023/07/28 02:42:56;;;;;;;5.77;3.10;;;15.40;91.40;;;;;;5056975;28;20970;-68
2023/07/28 02:45:27;;;;;;;3.50;2.53;;;15.50;91.30;;;;;;5056760;28;20530;-70
2023/07/28 02:47:54;;;;;;;3.40;1.97;;;15.50;91.30;;;;;;5056760;28;20524;-68
2023/07/28 02:50:35;;;;;;;3.13;2.20;;;15.60;91.20;;;;;;5056755;28;20484;-68
2023/07/28 02:53:07;;;;;;;3.40;2.23;;;15.60;91.10;;;;;;5057147;28;20854;-69
2023/07/28 02:55:42;;;;;;;3.03;1.97;;;15.60;91.00;;;;;;5057107;28;20457;-69
2023/07/28 02:58:09;;;;;;;4.47;2.80;;;15.60;90.90;;;;;;5057023;28;20853;-70
2023/07/28 03:00:46;;;;;;;4.33;2.33;;;15.70;90.80;;;;;;5056713;28;20440;-69
2023/07/28 03:03:13;;;;;;;7.53;2.40;;;15.70;90.70;;;;;;5056497;28;20514;-68
2023/07/28 03:05:45;;;;;;;3.77;2.17;;;15.70;90.60;;;;;;5056394;28;20472;-69
2023/07/28 03:08:12;;;;;;;3.73;2.40;;;15.70;90.40;;;;;;5056888;28;20836;-69
2023/07/28 03:10:39;;;;;;;10.77;4.53;;;15.70;90.20;;;;;;5055727;28;20554;-69
2023/07/28 03:13:06;;;;;;;3.83;2.57;;;15.70;90.20;;;;;;5056746;28;20847;-69
2023/07/28 03:15:39;;;;;;;4.70;2.53;;;15.70;90.10;;;;;;5056730;28;20476;-69
2023/07/28 03:18:07;;;;;;;4.90;2.87;;;15.70;90.20;;;;;;5056116;28;20515;-69
2023/07/28 03:20:34;;;;;;;7.40;3.17;;;15.70;90.20;;;;;;5055846;28;20444;-69
2023/07/28 03:23:06;;;;;;;5.13;2.33;;;15.80;90.30;;;;;;5056537;28;20475;-69
2023/07/28 03:25:35;;;;;;;4.60;3.20;;;15.80;90.60;;;;;;5056556;28;20467;-68
2023/07/28 03:28:07;;;;;;;3.37;2.03;;;15.90;90.80;;;;;;5055352;28;20473;-69
2023/07/28 03:30:34;;;;;;;3.83;2.33;;;15.90;90.70;;;;;;5056081;28;20519;-69
2023/07/28 03:33:01;;;;;;;4.73;2.43;;;15.90;90.80;;;;;;5055898;28;20486;-68
2023/07/28 03:35:29;;;;;;;4.57;3.10;;;15.90;90.80;;;;;;5055945;28;20444;-69
2023/07/28 03:37:56;;;;;;;3.30;2.17;;;15.90;90.80;;;;;;5055506;28;20479;-69
2023/07/28 03:40:25;;;;;;;4.50;3.33;;;15.90;90.80;;;;;;5055101;28;20532;-69
2023/07/28 03:42:55;;;;;;;5.03;2.87;;;15.90;91.00;;;;;;5056138;28;20465;-68
2023/07/28 03:45:27;;;;;;;5.03;2.40;;;15.90;91.10;;;;;;5054439;28;20992;-68
2023/07/28 03:47:54;;;;;;;3.43;2.13;;;15.90;91.10;;;;;;5055924;28;20510;-69
2023/07/28 03:50:26;;;;;;;3.07;2.07;;;15.90;91.20;;;;;;5055990;28;20489;-68
2023/07/28 03:52:57;;;;;;;3.50;2.30;;;15.90;91.20;;;;;;5055717;28;20429;-69
2023/07/28 03:55:29;;;;;;;4.20;2.37;;;15.90;91.10;;;;;;5055007;28;20516;-69
2023/07/28 03:57:58;;;;;;;4.50;2.20;;;15.90;91.10;;;;;;5056040;28;20433;-69
2023/07/28 04:00:26;;;;;;;4.00;2.50;;;15.90;91.20;;;;;;5055942;28;20523;-69
2023/07/28 04:02:53;;;;;;;4.37;3.10;;;15.90;91.20;;;;;;5055564;28;20497;-69
2023/07/28 04:05:25;;;;;;;4.10;2.60;;;15.90;91.20;;;;;;5055003;28;20448;-69
2023/07/28 04:07:53;;;;;;;4.47;2.40;;;15.90;91.10;;;;;;5055743;28;20496;-69
2023/07/28 04:10:25;;;;;;;4.00;2.30;;;15.90;91.00;;;;;;5055192;28;20518;-69
2023/07/28 04:12:52;;;;;;;4.07;2.33;;;15.90;91.00;;;;;;5055577;28;20461;-68
2023/07/28 04:15:21;;;;;;;5.10;2.57;;;15.90;91.00;;;;;;5054946;28;20487;-68
2023/07/28 04:17:48;;;;;;;3.87;2.73;;;15.90;91.00;;;;;;5055004;28;21008;-69
2023/07/28 04:20:15;;;;;;;4.80;2.20;;;15.90;90.90;;;;;;5055449;28;20485;-69
2023/07/28 04:22:42;;;;;;;3.67;2.30;;;15.80;91.00;;;;;;5055400;28;20857;-73
2023/07/28 04:25:11;;;;;;;6.27;2.60;;;15.90;91.10;;;;;;5054814;28;20476;-68
2023/07/28 04:27:38;;;;;;;3.13;1.90;;;15.80;91.20;;;;;;5055302;28;20909;-69
2023/07/28 04:30:06;;;;;;;5.57;2.50;;;15.80;91.50;;;;;;5055368;28;20526;-68
2023/07/28 04:32:33;;;;;;;6.17;2.90;;;15.80;91.40;;;;;;5055230;28;20854;-75
2023/07/28 04:34:59;;;;;;;4.83;2.93;;;15.90;91.40;;;;;;5054966;28;20524;-69
2023/07/28 04:37:26;;;;;;;4.23;3.20;;;15.90;91.60;;;;;;5055123;28;20534;-69
2023/07/28 04:39:53;;;;;;;4.90;2.30;;;15.90;91.70;;;;;;5054703;28;20494;-69
2023/07/28 04:42:22;;;;;;;3.40;2.23;;;16.00;91.80;;;;;;5054684;28;20472;-69
2023/07/28 04:44:49;;;;;;;3.97;2.40;;;16.00;91.80;;;;;;5053359;28;20494;-69
2023/07/28 04:47:16;;;;;;;4.13;2.70;;;15.90;91.90;;;;;;5053534;28;20575;-70
2023/07/28 04:49:43;;;;;;;5.17;2.43;;;16.00;92.20;;;;;;5053428;28;20444;-69
2023/07/28 04:52:10;;;;;;;4.43;2.50;;;16.00;92.10;;;;;;5054643;28;20837;-68
2023/07/28 04:54:37;;;;;;;3.20;2.10;;;16.00;92.40;;;;;;5053421;28;20531;-69
2023/07/28 04:57:04;;;;;;;3.93;2.10;;;16.00;92.60;;;;;;5052884;28;20866;-70
2023/07/28 04:59:33;;;;;;;5.17;2.83;;;16.10;92.80;;;;;;5053851;28;20527;-69
2023/07/28 05:01:59;;;;;;;8.13;2.30;;;16.10;92.80;;;;;;5052812;28;20469;-69
2023/07/28 05:04:26;;;;;;;4.00;2.40;;;16.00;92.60;;;;;;5053531;28;20477;-69
2023/07/28 05:06:53;;;;;;;4.83;3.00;;;16.00;92.40;;;;;;5053317;28;20548;-69
2023/07/28 05:09:20;;;;;;;4.17;1.83;;;15.90;92.40;;;;;;5053431;28;20471;-69
2023/07/28 05:11:47;;;;;;;6.43;2.70;;;15.70;92.80;;;;;;5053914;28;20484;-69
2023/07/28 05:14:14;;;;;;;4.23;2.87;;;15.60;93.20;;;;;;5053864;28;20472;-68
2023/07/28 05:16:43;;;;;;;3.97;2.67;;;15.60;93.60;;;;;;5053237;28;20535;-69
2023/07/28 05:19:10;;;;;;;4.47;3.07;;;15.70;93.80;;;;;;5053208;28;20439;-68
2023/07/28 05:21:37;;;;;;;3.50;2.17;;;15.70;93.90;;;;;;5053355;28;20475;-69
2023/07/28 05:24:04;;;;;;;4.10;2.67;;;15.80;94.00;;;;;;5053027;28;20444;-69
2023/07/28 05:26:31;;;;;;;4.23;2.57;;;15.80;94.00;;;;;;5052963;28;20532;-69
2023/07/28 05:28:58;;;;;;;4.37;2.77;;;15.80;93.70;;;;;;5053130;28;20440;-71
2023/07/28 05:31:25;;;;;;;5.30;2.37;;;15.80;94.10;;;;;;5053564;28;20480;-69
2023/07/28 05:33:54;;;;;;;4.53;3.00;;;15.70;94.50;;;;;;5052776;28;20914;-70
2023/07/28 05:36:21;;;;;;;4.77;2.60;;;15.70;94.70;;;;;;5053300;28;20447;-69
2023/07/28 05:38:48;;;;;;;4.07;2.60;;;15.70;94.90;;;;;;5052926;28;20514;-69
2023/07/28 05:41:15;;;;;;;4.70;2.60;;;15.60;95.20;;;;;;5052567;28;20443;-69
2023/07/28 05:43:42;;;;;;;4.00;2.30;;;15.70;95.20;;;;;;5052799;28;20527;-70
2023/07/28 05:46:09;;;;;;;5.23;2.50;;;15.70;95.00;;;;;;5053173;28;20518;-68
2023/07/28 05:48:36;;;;;;;3.63;2.30;;;15.70;95.20;;;;;;5052502;28;20566;-69
2023/07/28 05:51:04;;;;;;;4.23;2.60;;;15.60;95.20;;;;;;5052859;28;20480;-68
2023/07/28 05:53:36;;;;;;;3.23;1.73;;;15.60;95.50;;;;;;5052634;28;20459;-69
2023/07/28 05:56:03;;;;;;;5.33;2.90;;;15.60;95.40;;;;;;5052652;28;20473;-69
2023/07/28 05:58:30;;;;;;;4.10;2.63;;;15.70;95.60;;;;;;5049152;28;20447;-70
2023/07/28 06:00:57;;;;;;;4.00;2.50;;;15.70;95.40;;;;;;5052293;28;20486;-71
2023/07/28 06:03:26;;;;;;;6.40;3.00;;;15.80;95.40;;;;;;5052401;28;20436;-69
2023/07/28 06:05:53;;;;;;;3.23;2.20;;;15.90;95.40;;;;;;5051817;28;20436;-69
2023/07/28 06:08:21;;;;;;;4.80;2.30;;;16.10;95.60;;;;;;5052301;28;20507;-69
2023/07/28 06:10:48;;;;;;;4.13;2.03;;;16.20;95.10;;;;;;5051151;28;20870;-69
2023/07/28 06:13:15;;;;;;;3.50;2.20;;;16.40;94.80;;;;;;5052513;28;20543;-69
2023/07/28 06:15:43;;;;;;;2.90;1.83;;;16.50;94.20;;;;;;5052639;28;20526;-69
2023/07/28 06:18:10;;;;;;;4.30;2.07;;;16.60;93.80;;;;;;5051390;28;20469;-69
2023/07/28 06:20:37;;;;;;;5.77;2.60;;;16.70;93.90;;;;;;5052130;28;20528;-70
2023/07/28 06:23:04;;;;;;;3.07;1.83;;;16.80;92.90;;;;;;5052608;28;20531;-69
2023/07/28 06:25:33;;;;;;;3.20;2.00;;;16.80;92.90;;;;;;5052696;28;20765;-68
2023/07/28 06:28:00;;;;;;;3.23;2.20;;;17.00;93.00;;;;;;5052581;28;20563;-70
2023/07/28 06:30:26;;;;;;;4.03;2.60;;;17.10;93.10;;;;;;5043484;28;20539;-69
2023/07/28 06:32:53;;;;;;;3.87;2.27;;;17.20;92.60;;;;;;5051222;28;20444;-68
2023/07/28 06:35:20;;;;;;;5.03;3.30;;;17.40;92.80;;;;;;5052133;28;20466;-70
2023/07/28 06:37:47;;;;;;;4.20;2.50;;;17.60;93.00;;;;;;5052404;28;20454;-69
2023/07/28 06:40:14;;;;;;;4.20;2.23;;;17.70;93.00;;;;;;5051933;28;20453;-69
2023/07/28 06:42:42;;;;;;;4.07;2.10;;;17.90;93.10;;;;;;5051422;28;20469;-69
2023/07/28 06:45:10;;;;;;;3.83;2.00;;;18.10;93.30;;;;;;5052479;28;20929;-69
2023/07/28 06:47:37;;;;;;;2.70;1.70;;;18.40;93.70;;;;;;5052740;28;20553;-69
2023/07/28 06:50:05;;;;;;;4.00;2.40;;;18.60;94.10;;;;;;5050041;28;20992;-72
2023/07/28 06:52:32;;;;;;;6.33;2.77;;;18.80;94.20;;;;;;5052067;28;20441;-69
2023/07/28 06:54:59;;;;;;;3.70;2.17;;;18.90;93.30;;;;;;5052911;28;20916;-69
2023/07/28 06:57:25;;;;;;;5.97;2.40;;;19.10;92.80;;;;;;5053159;28;20488;-69
2023/07/28 06:59:54;;;;;;;4.03;2.67;;;19.20;93.00;;;;;;5053085;28;20521;-69
2023/07/28 07:02:21;;;;;;;3.10;2.10;;;19.40;92.70;;;;;;5053314;28;20496;-70
2023/07/28 07:04:48;;;;;;;4.40;2.03;;;19.50;92.10;;;;;;5053330;28;20431;-69
2023/07/28 07:07:15;;;;;;;3.30;2.23;;;19.70;91.60;;;;;;5052761;28;20502;-70
2023/07/28 07:09:42;;;;;;;3.80;1.60;;;19.90;92.00;;;;;;5052602;28;20546;-69
2023/07/28 07:12:09;;;;;;;6.83;2.13;;;20.00;91.90;;;;;;5052738;28;20510;-69
2023/07/28 07:14:36;;;;;;;3.80;2.20;;;20.20;91.60;;;;;;5052894;28;20960;-69
2023/07/28 07:17:05;;;;;;;5.03;2.10;;;20.30;91.30;;;;;;5053142;28;20496;-70
2023/07/28 07:19:32;;;;;;;2.80;1.80;;;20.40;91.30;;;;;;5054297;28;20435;-69
2023/07/28 07:21:59;;;;;;;3.00;2.07;;;20.60;91.20;;;;;;5056312;28;20969;-69
2023/07/28 07:24:26;;;;;;;5.27;2.33;;;20.70;91.20;;;;;;5056633;28;20517;-69
2023/07/28 07:26:52;;;;;;;2.87;1.60;;;20.90;90.90;;;;;;5056223;28;20973;-69
2023/07/28 07:29:19;;;;;;;4.33;2.30;;;21.10;90.70;;;;;;5056511;28;20518;-69
2023/07/28 07:31:46;;;;;;;5.67;1.97;;;21.20;90.60;;;;;;5056463;28;20519;-69
2023/07/28 07:34:15;;;;;;;3.40;1.70;;;21.30;88.40;;;;;;5056465;28;20834;-69
2023/07/28 07:36:42;;;;;;;3.33;2.10;;;21.50;87.90;;;;;;5056421;28;20436;-69
2023/07/28 07:39:09;;;;;;;4.70;2.03;;;21.60;85.30;;;;;;5056318;28;20518;-69
2023/07/28 07:41:36;;;;;;;3.13;2.20;;;21.70;85.70;;;;;;5055883;28;20967;-69
2023/07/28 07:44:03;;;;;;;3.10;2.43;;;21.90;81.80;;;;;;5056318;28;20533;-69
2023/07/28 07:46:30;;;;;;;3.37;1.70;;;21.90;81.70;;;;;;5056179;28;20430;-69
2023/07/28 07:48:57;;;;;;;3.40;1.70;;;22.10;83.10;;;;;;5056002;28;20893;-69
2023/07/28 07:51:25;;;;;;;5.63;2.63;;;22.20;80.30;;;;;;5056068;28;20436;-69
2023/07/28 07:53:52;;;;;;;4.03;1.90;;;22.40;81.70;;;;;;5056155;28;20479;-69
2023/07/28 07:56:19;;;;;;;4.53;1.93;;;22.50;81.40;;;;;;5055697;28;20467;-69
2023/07/28 07:58:46;;;;;;;4.53;1.80;;;22.60;79.20;;;;;;5055970;28;20531;-73
2023/07/28 08:01:13;;;;;;;7.30;2.30;;;22.70;80.10;;;;;;5056067;28;20417;-69
2023/07/28 08:03:40;;;;;;;4.33;1.77;;;22.90;83.00;;;;;;5056073;28;20537;-69
2023/07/28 08:06:09;;;;;;;3.67;2.17;;;23.00;81.10;;;;;;5055850;28;20463;-70
2023/07/28 08:08:37;;;;;;;3.07;1.80;;;23.20;80.90;;;;;;5055636;28;20472;-70
2023/07/28 08:11:04;;;;;;;5.30;2.30;;;23.30;77.60;;;;;;5055878;28;20547;-69
2023/07/28 08:13:33;;;;;;;4.67;2.07;;;23.40;78.10;;;;;;5055747;28;20756;-69
2023/07/28 08:15:59;;;;;;;4.80;2.17;;;23.60;76.70;;;;;;5055319;28;20472;-69
2023/07/28 08:18:26;;;;;;;3.27;1.97;;;23.60;77.00;;;;;;5055651;28;20460;-69
2023/07/28 08:20:53;;;;;;;3.27;1.90;;;23.70;79.30;;;;;;5055551;28;20441;-69
2023/07/28 08:23:20;;;;;;;2.83;1.67;;;23.90;78.80;;;;;;5055530;28;20835;-69
2023/07/28 08:25:48;;;;;;;3.50;1.67;;;24.00;77.50;;;;;;5055428;28;20518;-69
2023/07/28 08:28:15;;;;;;;3.00;1.90;;;24.20;77.50;;;;;;5055250;28;20508;-69
2023/07/28 08:30:42;;;;;;;3.90;2.17;;;24.20;75.20;;;;;;5055310;28;20521;-69
2023/07/28 08:33:09;;;;;;;2.70;1.80;;;24.30;73.70;;;;;;5054903;28;20520;-69
2023/07/28 08:35:36;;;;;;;4.03;2.20;;;24.40;74.60;;;;;;5055316;28;20461;-70
2023/07/28 08:38:04;;;;;;;3.40;2.00;;;24.50;73.70;;;;;;5055194;28;20528;-69
2023/07/28 08:40:31;;;;;;;2.90;1.70;;;24.70;73.90;;;;;;5055162;28;20811;-69
2023/07/28 08:42:59;;;;;;;4.10;2.60;;;24.80;71.90;;;;;;5054748;28;20425;-69
2023/07/28 08:45:26;;;;;;;3.57;2.13;;;24.90;70.90;;;;;;5055031;28;20520;-69
2023/07/28 08:47:53;;;;;;;4.20;2.80;;;25.00;68.40;;;;;;5054898;28;20512;-69
2023/07/28 08:50:20;;;;;;;3.00;2.00;;;25.20;66.20;;;;;;5055074;28;20512;-69
2023/07/28 08:52:49;;;;;;;3.33;1.97;;;25.20;65.00;;;;;;5054901;28;20512;-70
2023/07/28 08:55:16;;;;;;;3.83;2.30;;;25.20;66.40;;;;;;5054886;28;20449;-69
2023/07/28 08:57:44;;;;;;;3.30;2.03;;;25.20;64.30;;;;;;5054750;28;20908;-70
2023/07/28 09:00:14;;;;;;;3.90;2.40;;;25.20;65.60;;;;;;5054861;28;20444;-70
2023/07/28 09:02:45;;;;;;;3.70;1.80;;;25.10;64.50;;;;;;5054754;28;20421;-69
2023/07/28 09:05:19;;;;;;;3.20;1.70;;;25.10;63.80;;;;;;5054721;28;20421;-69
2023/07/28 09:07:46;;;;;;;4.20;2.07;;;25.10;66.00;;;;;;5054307;28;20509;-69
2023/07/28 09:10:13;;;;;;;5.27;2.03;;;25.10;65.50;;;;;;5054054;28;20981;-69
2023/07/28 09:12:46;;;;;;;4.03;1.73;;;25.10;64.50;;;;;;5054577;28;20834;-69
2023/07/28 09:15:14;;;;;;;3.20;2.43;;;25.20;65.60;;;;;;5054532;28;20771;-69
2023/07/28 09:17:43;;;;;;;5.13;2.77;;;25.30;65.90;;;;;;5054053;28;20462;-70
2023/07/28 09:20:14;;;;;;;3.40;2.20;;;25.30;63.50;;;;;;5054359;28;20436;-69
2023/07/28 09:22:41;;;;;;;3.50;2.10;;;25.40;62.30;;;;;;5054117;28;20892;-69
2023/07/28 09:25:14;;;;;;;3.13;1.90;;;25.40;63.50;;;;;;5054395;28;20524;-69
2023/07/28 09:27:41;;;;;;;6.70;2.10;;;25.50;64.20;;;;;;5053864;28;20426;-69
2023/07/28 09:30:08;;;;;;;3.53;1.87;;;25.50;62.40;;;;;;5053907;28;20429;-69
2023/07/28 09:32:37;;;;;;;3.57;2.17;;;25.50;62.00;;;;;;5054060;28;20520;-69
2023/07/28 09:35:09;;;;;;;4.10;2.10;;;25.50;60.20;;;;;;5053759;28;20495;-69
2023/07/28 09:37:39;;;;;;;7.17;2.10;;;25.50;60.00;;;;;;5053735;28;20440;-69
2023/07/28 09:40:11;;;;;;;3.33;2.00;;;25.50;60.50;;;;;;5054150;28;20425;-69
2023/07/28 09:42:39;;;;;;;3.47;2.13;;;25.50;60.10;;;;;;5053627;28;20762;-69
2023/07/28 09:45:08;;;;;;;5.03;2.33;;;25.50;59.70;;;;;;5054274;28;20846;-69
2023/07/28 09:47:37;;;;;;;3.30;2.20;;;25.50;59.50;;;;;;5053829;28;20438;-69
2023/07/28 09:50:05;;;;;;;7.70;2.30;;;25.50;60.00;;;;;;5053613;28;20438;-69
2023/07/28 09:52:35;;;;;;;3.30;2.10;;;25.50;60.30;;;;;;5054083;28;20484;-69
2023/07/28 09:55:07;;;;;;;3.70;2.50;;;25.50;61.30;;;;;;5054188;28;20738;-69
2023/07/28 09:57:40;;;;;;;3.27;2.10;;;25.60;62.20;;;;;;5053868;28;20425;-69
2023/07/28 10:00:09;;;;;;;3.50;2.17;;;25.70;60.70;;;;;;5054197;28;20425;-70
2023/07/28 10:02:39;;;;;;;3.77;2.70;;;25.80;60.70;;;;;;5053696;28;20782;-69
2023/07/28 10:05:07;;;;;;;4.23;2.20;;;25.90;60.40;;;;;;5053716;28;20516;-69
2023/07/28 10:07:36;;;;;;;3.23;2.20;;;26.00;59.60;;;;;;5053431;28;20429;-69
2023/07/28 10:10:07;;;;;;;2.77;1.63;;;26.00;59.50;;;;;;5053507;28;20584;-70
2023/07/28 10:12:42;;;;;;;9.80;4.80;;;26.10;59.60;;;;;;5053784;28;20417;-69
2023/07/28 10:15:12;;;;;;;7.77;6.17;;;26.10;59.40;;;;;;5053646;28;20421;-70
2023/07/28 10:17:45;;;;;;;5.50;3.07;;;26.00;59.30;;;;;;5053588;28;20453;-70
2023/07/28 10:20:31;;;;;;;3.57;2.50;;;25.90;59.00;;;;;;5053837;28;20509;-69
2023/07/28 10:23:08;;;;;;;3.40;1.67;;;25.80;58.10;;;;;;5053599;28;20476;-69
2023/07/28 10:25:37;;;;;;;3.30;2.30;;;25.60;57.90;;;;;;5053438;28;20433;-70
2023/07/28 10:28:06;;;;;;;4.10;2.60;;;25.60;58.30;;;;;;5053557;28;20444;-69
2023/07/28 10:30:38;;;;;;;3.57;2.20;;;25.50;59.10;;;;;;5053634;28;20464;-69
2023/07/28 10:33:06;;;;;;;4.73;2.17;;;25.30;58.30;;;;;;5053098;28;20471;-70
2023/07/28 10:35:34;;;;;;;5.33;2.90;;;25.30;59.60;;;;;;5053075;28;20989;-69
2023/07/28 10:38:32;;;;;;;3.67;2.30;;;25.20;58.70;;;;;;5053097;28;20970;-69
2023/07/28 10:41:14;;;;;;;3.90;2.43;;;25.10;59.00;;;;;;5053141;28;20892;-69
2023/07/28 10:43:42;;;;;;;8.30;2.83;;;25.00;59.50;;;;;;5053480;28;20764;-69
2023/07/28 10:46:11;;;;;;;4.37;3.03;;;24.90;59.70;;;;;;5053393;28;20426;-69
2023/07/28 10:48:43;;;;;;;3.77;2.37;;;24.90;60.10;;;;;;5053148;28;20559;-70
2023/07/28 10:51:11;;;;;;;3.73;2.03;;;24.90;61.30;;;;;;5053230;28;20979;-69
2023/07/28 10:53:38;;;;;;;2.93;1.83;;;24.90;60.70;;;;;;5052919;28;20524;-69
2023/07/28 10:56:08;;;;;;;3.20;2.10;;;24.80;60.70;;;;;;5057322;28;20839;-69
2023/07/28 10:58:36;;;;;;;4.23;2.47;;;24.70;61.70;;;;;;5057235;28;20437;-69
2023/07/28 11:01:03;;;;;;;4.73;2.60;;;24.70;62.30;;;;;;5056987;28;20426;-69
2023/07/28 11:03:30;;;;;;;4.50;2.73;;;24.60;62.20;;;;;;5056917;28;20476;-69
2023/07/28 11:05:58;;;;;;;4.73;2.43;;;24.60;61.60;;;;;;5056637;28;20433;-69
2023/07/28 11:08:26;;;;;;;5.27;2.03;;;24.60;62.90;;;;;;5056712;28;20496;-69
2023/07/28 11:10:53;;;;;;;4.20;2.57;;;24.50;60.50;;;;;;5056957;28;20543;-69
2023/07/28 11:13:20;;;;;;;4.37;3.20;;;24.50;60.60;;;;;;5056840;28;20476;-69
2023/07/28 11:15:48;;;;;;;4.63;2.50;;;24.50;61.80;;;;;;5056732;28;20465;-69
2023/07/28 11:18:16;;;;;;;4.83;3.30;;;24.40;60.70;;;;;;5056400;28;20924;-69
2023/07/28 11:20:44;;;;;;;5.00;2.43;;;24.30;60.60;;;;;;5056751;28;20433;-69
2023/07/28 11:23:17;;;;;;;4.53;2.70;;;24.30;61.30;;;;;;5056335;28;20981;-69
2023/07/28 11:25:47;;;;;;;3.33;2.30;;;24.30;61.50;;;;;;5056365;28;20456;-69
2023/07/28 11:28:14;;;;;;;4.00;2.20;;;24.30;60.80;;;;;;5056145;28;20954;-69
2023/07/28 11:30:42;;;;;;;7.07;2.77;;;24.30;60.60;;;;;;5056456;28;20479;-69
2023/07/28 11:33:11;;;;;;;3.93;2.50;;;24.20;60.70;;;;;;5056571;28;20466;-69
2023/07/28 11:35:39;;;;;;;3.43;2.43;;;24.20;61.70;;;;;;5056406;28;20429;-69
2023/07/28 11:38:06;;;;;;;4.30;2.97;;;24.20;60.50;;;;;;5056086;28;20426;-69
2023/07/28 11:40:41;;;;;;;3.60;2.37;;;24.20;60.00;;;;;;5056036;28;20908;-69
2023/07/28 11:43:08;;;;;;;3.63;2.30;;;24.20;60.70;;;;;;5056400;28;20448;-69
2023/07/28 11:45:35;;;;;;;4.10;2.53;;;24.20;61.50;;;;;;5056289;28;20515;-69
2023/07/28 11:48:04;;;;;;;4.63;3.27;;;24.20;61.40;;;;;;5056034;28;20457;-69
2023/07/28 11:50:36;;;;;;;3.90;2.80;;;24.30;62.20;;;;;;5056107;28;20885;-69
2023/07/28 11:53:03;;;;;;;3.80;2.40;;;24.30;61.60;;;;;;5055889;28;20896;-69
2023/07/28 11:55:30;;;;;;;4.10;2.30;;;24.30;60.30;;;;;;5056263;28;20532;-69
2023/07/28 11:58:01;;;;;;;3.30;2.20;;;24.30;60.90;;;;;;5055990;28;20425;-69
2023/07/28 12:00:31;;;;;;;5.70;2.70;;;24.30;62.30;;;;;;5056061;28;20503;-69
2023/07/28 12:03:06;;;;;;;3.87;2.50;;;24.20;61.10;;;;;;5055983;28;20441;-69
2023/07/28 12:05:34;;;;;;;3.60;2.33;;;24.20;61.00;;;;;;5055094;28;20520;-69
2023/07/28 12:08:03;;;;;;;5.70;3.13;;;24.20;61.80;;;;;;5055548;28;20440;-69
2023/07/28 12:10:31;;;;;;;5.70;3.20;;;24.20;62.80;;;;;;5055399;28;20488;-69
2023/07/28 12:13:05;;;;;;;3.60;2.40;;;24.20;63.00;;;;;;5055740;28;20437;-69
2023/07/28 12:15:33;;;;;;;3.80;2.40;;;24.20;63.20;;;;;;5055468;28;20425;-69
2023/07/28 12:18:08;;;;;;;3.70;2.33;;;24.20;62.80;;;;;;5055530;28;20430;-69
2023/07/28 12:20:35;;;;;;;9.33;3.93;;;24.30;63.90;;;;;;5055599;28;20421;-69
2023/07/28 12:23:02;;;;;;;5.73;3.07;;;24.30;63.80;;;;;;5055504;28;20768;-69
2023/07/28 12:25:30;;;;;;;4.07;2.20;;;24.40;63.50;;;;;;5055165;28;20433;-69
2023/07/28 12:27:59;;;;;;;3.73;2.53;;;24.50;64.70;;;;;;5055063;28;20524;-70
2023/07/28 12:30:26;;;;;;;4.90;2.67;;;24.50;65.00;;;;;;5055001;28;20997;-70
2023/07/28 12:32:52;;;;;;;4.97;3.33;;;24.60;65.20;;;;;;5055364;28;20513;-69
2023/07/28 12:35:23;;;;;;;4.90;2.40;;;24.60;64.00;;;;;;5055305;28;20516;-70
2023/07/28 12:37:50;;;;;;;3.10;1.97;;;24.60;64.70;;;;;;5055513;28;20437;-69
2023/07/28 12:40:18;;;;;;;3.67;2.57;;;24.60;63.80;;;;;;5055131;28;20525;-70
2023/07/28 12:42:45;;;;;;;7.63;2.63;;;24.60;63.40;;;;;;5054943;28;20425;-69
2023/07/28 12:45:14;;;;;;;5.13;2.63;;;24.60;63.70;;;;;;5054962;28;20436;-69
2023/07/28 12:47:41;;;;;;;4.80;2.77;;;24.60;64.80;;;;;;5055133;28;20814;-70
2023/07/28 12:50:09;;;;;;;4.90;2.53;;;24.60;65.00;;;;;;5054620;28;20472;-69
2023/07/28 12:52:36;;;;;;;5.47;2.70;;;24.50;64.50;;;;;;5054553;28;20503;-69
2023/07/28 12:55:04;;;;;;;4.87;2.80;;;24.50;64.80;;;;;;5054852;28;20531;-69
2023/07/28 12:57:31;;;;;;;5.00;2.50;;;24.50;65.20;;;;;;5054623;28;20981;-69